Time;durP1;ratioP1;P1;durP2;ratioP2;P2;SDS_P1;SDS_P2;PMS_P1;PMS_P2;Temp;Humidity;BMP_temperature;BMP_pressure;BME280_temperature;BME280_humidity;BME280_pressure;Samples;Min_cycle;Max_cycle;Signal;HPM_P1;HPM_P2
2023/09/05 00:01:12;;;;;;;8.35;5.60;;;;;;;-147.95;100.00;58458.38;5086075;28;20096;-79
2023/09/05 00:03:38;;;;;;;8.85;5.07;;;;;;;-147.95;100.00;58458.38;5082270;28;20052;-78
2023/09/05 00:06:10;;;;;;;9.00;5.68;;;;;;;-147.95;100.00;58458.38;5077996;28;20062;-79
2023/09/05 00:08:39;;;;;;;7.43;4.97;;;;;;;-147.95;100.00;58458.38;5084355;28;20036;-79
2023/09/05 00:11:04;;;;;;;14.20;5.28;;;;;;;-147.95;100.00;58458.38;5081554;28;20044;-79
2023/09/05 00:13:30;;;;;;;12.38;4.65;;;;;;;-147.95;100.00;58458.38;5072004;28;20028;-79
2023/09/05 00:15:57;;;;;;;8.30;4.65;;;;;;;-147.95;100.00;58458.38;5084242;28;20500;-79
2023/09/05 00:18:23;;;;;;;14.38;5.70;;;;;;;-147.95;100.00;58458.38;5087149;28;20023;-79
2023/09/05 00:20:54;;;;;;;9.25;5.28;;;;;;;-147.95;100.00;58458.38;5085457;28;20034;-79
2023/09/05 00:23:20;;;;;;;7.65;5.32;;;;;;;-147.95;100.00;58458.38;5082255;28;20074;-79
2023/09/05 00:25:46;;;;;;;7.47;5.45;;;;;;;-147.95;100.00;58458.38;5082428;28;20032;-79
2023/09/05 00:28:13;;;;;;;8.43;5.30;;;;;;;-147.95;100.00;58458.38;5085730;28;20028;-79
2023/09/05 00:30:38;;;;;;;9.65;5.38;;;;;;;-147.95;100.00;58458.38;5084827;28;20024;-79
2023/09/05 00:33:04;;;;;;;10.00;5.82;;;;;;;-147.95;100.00;58458.38;5087877;28;20133;-79
2023/09/05 00:35:29;;;;;;;11.02;4.90;;;;;;;-147.95;100.00;58458.38;5065353;28;20073;-79
2023/09/05 00:37:55;;;;;;;9.55;4.88;;;;;;;-147.95;100.00;58458.38;5079768;28;20040;-79
2023/09/05 00:40:20;;;;;;;8.77;5.45;;;;;;;-147.95;100.00;58458.38;5070803;28;20111;-79
2023/09/05 00:42:46;;;;;;;13.20;5.22;;;;;;;-147.95;100.00;58458.38;5041595;28;20037;-78
2023/09/05 00:45:11;;;;;;;10.38;4.65;;;;;;;-147.95;100.00;58458.38;5086204;28;20027;-79
2023/09/05 00:47:38;;;;;;;11.85;5.60;;;;;;;-147.95;100.00;58458.38;5080410;28;20037;-79
2023/09/05 00:50:06;;;;;;;10.10;5.13;;;;;;;-147.95;100.00;58458.38;5085873;28;20024;-79
2023/09/05 00:52:33;;;;;;;8.10;4.60;;;;;;;-147.95;100.00;58458.38;5077330;28;20024;-79
2023/09/05 00:54:58;;;;;;;7.50;4.80;;;;;;;-147.95;100.00;58458.38;5080608;28;20054;-78
2023/09/05 00:57:24;;;;;;;13.07;5.40;;;;;;;-147.95;100.00;58458.38;5068181;28;20036;-78
2023/09/05 00:59:50;;;;;;;8.98;5.70;;;;;;;-147.95;100.00;58458.38;5076783;28;20101;-78
2023/09/05 01:02:16;;;;;;;9.73;5.38;;;;;;;-147.95;100.00;58458.38;5068390;28;20032;-78
2023/09/05 01:04:43;;;;;;;9.32;5.70;;;;;;;-147.95;100.00;58458.38;5094673;28;20036;-78
2023/09/05 01:07:08;;;;;;;15.35;5.97;;;;;;;-147.95;100.00;58458.38;5086072;28;20028;-78
2023/09/05 01:09:44;;;;;;;11.98;5.60;;;;;;;-147.95;100.00;58458.38;5079171;28;20031;-79
2023/09/05 01:12:09;;;;;;;7.20;5.20;;;;;;;-147.95;100.00;58458.38;5084930;28;20038;-78
2023/09/05 01:14:35;;;;;;;11.13;5.53;;;;;;;-147.95;100.00;58458.38;5087351;28;20143;-78
2023/09/05 01:17:05;;;;;;;6.95;4.90;;;;;;;-147.95;100.00;58458.38;5086329;28;20032;-78
2023/09/05 01:19:34;;;;;;;9.05;4.95;;;;;;;-147.95;100.00;58458.38;5065239;28;20074;-78
2023/09/05 01:22:13;;;;;;;6.60;4.43;;;;;;;-147.95;100.00;58458.38;5087141;28;20024;-79
2023/09/05 01:24:40;;;;;;;9.88;5.22;;;;;;;-147.95;100.00;58458.38;5088320;28;20032;-78
2023/09/05 01:27:07;;;;;;;10.95;5.40;;;;;;;-147.95;100.00;58458.38;5085005;28;20142;-78
2023/09/05 01:29:38;;;;;;;10.23;5.55;;;;;;;-147.95;100.00;58458.38;5085002;28;20522;-78
2023/09/05 01:32:07;;;;;;;7.38;5.00;;;;;;;-147.95;100.00;58458.38;5082833;28;20444;-79
2023/09/05 01:34:33;;;;;;;9.63;6.07;;;;;;;-147.95;100.00;58458.38;5082216;28;20033;-78
2023/09/05 01:36:58;;;;;;;12.98;5.80;;;;;;;-147.95;100.00;58458.38;5065895;28;20032;-79
2023/09/05 01:39:24;;;;;;;8.88;6.28;;;;;;;-147.95;100.00;58458.38;5087665;28;20032;-78
2023/09/05 01:41:50;;;;;;;10.20;5.97;;;;;;;-147.95;100.00;58458.38;5083968;28;20031;-78
2023/09/05 01:44:15;;;;;;;10.50;5.85;;;;;;;-147.95;100.00;58458.38;5084017;28;20690;-78
2023/09/05 01:46:41;;;;;;;7.30;5.35;;;;;;;-147.95;100.00;58458.38;5088188;28;20093;-78
2023/09/05 01:49:06;;;;;;;14.82;7.53;;;;;;;-147.95;100.00;58458.38;5083746;28;20709;-79
2023/09/05 01:51:31;;;;;;;9.77;5.53;;;;;;;-147.95;100.00;58458.38;5079609;28;20028;-78
2023/09/05 01:53:57;;;;;;;12.18;6.25;;;;;;;-147.95;100.00;58458.38;5082812;28;20038;-79
2023/09/05 01:56:22;;;;;;;11.55;6.75;;;;;;;-147.95;100.00;58458.38;5053628;28;20123;-79
2023/09/05 01:58:48;;;;;;;10.80;5.75;;;;;;;-147.95;100.00;58458.38;5078283;28;20505;-78
2023/09/05 02:01:13;;;;;;;10.80;5.85;;;;;;;-147.95;100.00;58458.38;5071278;28;20486;-78
2023/09/05 02:03:38;;;;;;;9.02;6.13;;;;;;;-147.95;100.00;58458.38;5083068;28;20036;-78
2023/09/05 02:06:04;;;;;;;10.15;5.97;;;;;;;-147.95;100.00;58458.38;5092784;28;20071;-79
2023/09/05 02:08:29;;;;;;;15.30;5.47;;;;;;;-147.95;100.00;58458.38;5086422;28;20110;-78
2023/09/05 02:10:55;;;;;;;8.50;6.20;;;;;;;-147.95;100.00;58458.38;5090472;28;20039;-79
2023/09/05 02:13:20;;;;;;;15.80;6.15;;;;;;;-147.95;100.00;58458.38;5085955;28;20027;-80
2023/09/05 02:15:46;;;;;;;13.30;5.95;;;;;;;-147.95;100.00;58458.38;5090053;28;20032;-79
2023/09/05 02:18:11;;;;;;;11.57;5.90;;;;;;;-147.95;100.00;58458.38;5088694;28;20048;-79
2023/09/05 02:20:38;;;;;;;13.35;5.70;;;;;;;-147.95;100.00;58458.38;5091730;28;20073;-81
2023/09/05 02:23:04;;;;;;;12.00;6.63;;;;;;;-147.95;100.00;58458.38;5086439;28;20067;-81
2023/09/05 02:25:29;;;;;;;9.95;5.53;;;;;;;-147.95;100.00;58458.38;5080566;28;20059;-81
2023/09/05 02:27:55;;;;;;;13.02;6.18;;;;;;;-147.95;100.00;58458.38;5082521;28;20451;-81
2023/09/05 02:30:20;;;;;;;16.13;6.18;;;;;;;-147.95;100.00;58458.38;5082875;28;20446;-82
2023/09/05 02:32:50;;;;;;;13.13;6.40;;;;;;;-147.95;100.00;58458.38;5068396;28;20437;-82
2023/09/05 02:35:16;;;;;;;11.50;6.47;;;;;;;-147.95;100.00;58458.38;5087887;28;20372;-82
2023/09/05 02:37:41;;;;;;;9.65;6.22;;;;;;;-147.95;100.00;58458.38;5079058;28;20509;-82
2023/09/05 02:40:07;;;;;;;10.10;6.20;;;;;;;-147.95;100.00;58458.38;5067932;28;20029;-81
2023/09/05 02:42:34;;;;;;;11.15;6.32;;;;;;;-147.95;100.00;58458.38;5087541;28;20039;-82
2023/09/05 02:44:59;;;;;;;11.80;6.90;;;;;;;-147.95;100.00;58458.38;5083586;28;20402;-82
2023/09/05 02:47:24;;;;;;;9.82;5.70;;;;;;;-147.95;100.00;58458.38;5083991;28;20040;-81
2023/09/05 02:49:50;;;;;;;11.88;6.30;;;;;;;-147.95;100.00;58458.38;5084650;28;20029;-81
2023/09/05 02:52:15;;;;;;;14.73;6.30;;;;;;;-147.95;100.00;58458.38;5058218;28;20035;-82
2023/09/05 02:54:41;;;;;;;13.35;6.82;;;;;;;-147.95;100.00;58458.38;5066621;28;20122;-82
2023/09/05 02:57:06;;;;;;;15.00;7.05;;;;;;;-147.95;100.00;58458.38;5083035;28;20028;-81
2023/09/05 02:59:32;;;;;;;12.45;6.88;;;;;;;-147.95;100.00;58458.38;5066392;28;20063;-81
2023/09/05 03:01:57;;;;;;;11.32;6.95;;;;;;;-147.95;100.00;58458.38;5074506;28;20452;-81
2023/09/05 03:04:23;;;;;;;12.55;6.75;;;;;;;-147.95;100.00;58458.38;5084198;28;20056;-81
2023/09/05 03:06:49;;;;;;;24.95;7.13;;;;;;;-147.95;100.00;58458.38;5083203;28;20024;-81
2023/09/05 03:09:14;;;;;;;11.45;6.60;;;;;;;-147.95;100.00;58458.38;5089428;28;20135;-81
2023/09/05 03:11:39;;;;;;;13.18;6.63;;;;;;;-147.95;100.00;58458.38;5084752;28;20085;-81
2023/09/05 03:14:05;;;;;;;15.05;6.45;;;;;;;-147.95;100.00;58458.38;5083169;28;20078;-81
2023/09/05 03:16:31;;;;;;;12.43;6.60;;;;;;;-147.95;100.00;58458.38;5091017;28;20038;-81
2023/09/05 03:19:01;;;;;;;11.95;6.30;;;;;;;-147.95;100.00;58458.38;5084551;28;20032;-82
2023/09/05 03:21:26;;;;;;;21.55;7.60;;;;;;;-147.95;100.00;58458.38;5066074;28;20482;-79
2023/09/05 03:23:52;;;;;;;11.20;6.75;;;;;;;-147.95;100.00;58458.38;5083404;28;20047;-81
2023/09/05 03:26:19;;;;;;;10.93;6.43;;;;;;;-147.95;100.00;58458.38;5070446;28;20120;-81
2023/09/05 03:28:45;;;;;;;10.52;6.15;;;;;;;-147.95;100.00;58458.38;5089171;28;20055;-81
2023/09/05 03:31:11;;;;;;;11.27;6.13;;;;;;;-147.95;100.00;58458.38;5083782;28;20028;-81
2023/09/05 03:33:37;;;;;;;9.98;5.80;;;;;;;-147.95;100.00;58458.38;5063366;28;20089;-81
2023/09/05 03:36:03;;;;;;;13.55;7.00;;;;;;;-147.95;100.00;58458.38;5085959;28;20509;-81
2023/09/05 03:38:29;;;;;;;10.43;6.18;;;;;;;-147.95;100.00;58458.38;5082052;28;20669;-81
2023/09/05 03:40:55;;;;;;;11.77;6.28;;;;;;;-147.95;100.00;58458.38;5081548;28;20037;-81
2023/09/05 03:43:20;;;;;;;11.60;6.25;;;;;;;-147.95;100.00;58458.38;5079620;28;20024;-81
2023/09/05 03:45:49;;;;;;;11.68;6.57;;;;;;;-147.95;100.00;58458.38;5064822;28;20027;-81
2023/09/05 03:48:15;;;;;;;15.32;6.68;;;;;;;-147.95;100.00;58458.38;5084218;28;20032;-82
2023/09/05 03:50:40;;;;;;;10.23;6.95;;;;;;;-147.95;100.00;58458.38;5068817;28;20475;-81
2023/09/05 03:53:06;;;;;;;10.65;6.70;;;;;;;-147.95;100.00;58458.38;5083204;28;20408;-81
2023/09/05 03:55:34;;;;;;;11.88;6.47;;;;;;;-147.95;100.00;58458.38;5084222;28;20882;-81
2023/09/05 03:58:00;;;;;;;11.00;6.45;;;;;;;-147.95;100.00;58458.38;5084858;28;20032;-81
2023/09/05 04:00:25;;;;;;;11.73;6.43;;;;;;;-147.95;100.00;58458.38;5084518;28;20039;-82
2023/09/05 04:02:51;;;;;;;12.10;6.13;;;;;;;-147.95;100.00;58458.38;5083839;28;20156;-82
2023/09/05 04:05:16;;;;;;;11.63;7.03;;;;;;;-147.95;100.00;58458.38;5050949;28;20499;-82
2023/09/05 04:07:42;;;;;;;25.27;6.78;;;;;;;-147.95;100.00;58458.38;5084173;28;20043;-82
2023/09/05 04:10:07;;;;;;;12.35;6.03;;;;;;;-147.95;100.00;58458.38;5051510;28;20112;-82
2023/09/05 04:12:33;;;;;;;12.32;6.53;;;;;;;-147.95;100.00;58458.38;5084354;28;20036;-82
2023/09/05 04:14:58;;;;;;;7.15;5.45;;;;;;;-147.95;100.00;58458.38;5077179;28;20121;-82
2023/09/05 04:17:24;;;;;;;11.25;6.20;;;;;;;-147.95;100.00;58458.38;5070023;28;20429;-82
2023/09/05 04:19:54;;;;;;;11.23;6.20;;;;;;;-147.95;100.00;58458.38;5058571;28;20376;-82
2023/09/05 04:22:21;;;;;;;11.82;5.65;;;;;;;-147.95;100.00;58458.38;5080809;28;20556;-84
2023/09/05 04:24:50;;;;;;;13.30;6.03;;;;;;;-147.95;100.00;58458.38;5083977;28;20107;-82
2023/09/05 04:27:16;;;;;;;9.05;5.85;;;;;;;-147.95;100.00;58458.38;5088184;28;20050;-82
2023/09/05 04:29:41;;;;;;;14.30;5.75;;;;;;;-147.95;100.00;58458.38;5049965;28;20029;-82
2023/09/05 04:32:07;;;;;;;9.35;6.00;;;;;;;-147.95;100.00;58458.38;5084953;28;20035;-84
2023/09/05 04:34:34;;;;;;;12.00;6.32;;;;;;;-147.95;100.00;58458.38;5080077;28;20024;-84
2023/09/05 04:36:59;;;;;;;13.82;5.90;;;;;;;-147.95;100.00;58458.38;5084471;28;20028;-84
2023/09/05 04:39:24;;;;;;;8.68;5.93;;;;;;;-147.95;100.00;58458.38;5078414;28;20083;-84
2023/09/05 04:41:50;;;;;;;9.23;5.78;;;;;;;-147.95;100.00;58458.38;5063612;28;20039;-81
2023/09/05 04:44:15;;;;;;;15.70;6.85;;;;;;;-147.95;100.00;58458.38;5084285;28;20032;-79
2023/09/05 04:46:45;;;;;;;8.32;5.68;;;;;;;-147.95;100.00;58458.38;5079799;28;20513;-79
2023/09/05 04:49:11;;;;;;;13.00;6.43;;;;;;;-147.95;100.00;58458.38;5050679;28;20051;-79
2023/09/05 04:51:36;;;;;;;11.73;7.38;;;;;;;-147.95;100.00;58458.38;5085319;28;20074;-79
2023/09/05 04:54:05;;;;;;;15.50;5.93;;;;;;;-147.95;100.00;58458.38;5078861;28;20032;-79
2023/09/05 04:56:32;;;;;;;16.20;6.72;;;;;;;-147.95;100.00;58458.38;5089494;28;20032;-80
2023/09/05 04:58:57;;;;;;;16.30;7.25;;;;;;;-147.95;100.00;58458.38;5061244;28;20040;-80
2023/09/05 05:01:22;;;;;;;11.15;6.22;;;;;;;-147.95;100.00;58458.38;5050909;28;20126;-81
2023/09/05 05:03:48;;;;;;;11.55;6.72;;;;;;;-147.95;100.00;58458.38;5073968;28;20029;-81
2023/09/05 05:06:14;;;;;;;9.70;6.55;;;;;;;-147.95;100.00;58458.38;5079125;28;20031;-80
2023/09/05 05:08:40;;;;;;;13.30;6.22;;;;;;;-147.95;100.00;58458.38;5067451;28;20368;-80
2023/09/05 05:11:05;;;;;;;11.65;6.22;;;;;;;-147.95;100.00;58458.38;5058952;28;20090;-80
2023/09/05 05:13:31;;;;;;;11.98;6.43;;;;;;;-147.95;100.00;58458.38;5063011;28;20035;-80
2023/09/05 05:15:57;;;;;;;12.57;6.38;;;;;;;-147.95;100.00;58458.38;5060649;28;20087;-81
2023/09/05 05:18:22;;;;;;;13.18;6.70;;;;;;;-147.95;100.00;58458.38;5073444;28;20024;-81
2023/09/05 05:20:48;;;;;;;15.82;6.90;;;;;;;-147.95;100.00;58458.38;5066016;28;20498;-80
2023/09/05 05:23:13;;;;;;;7.15;5.63;;;;;;;-147.95;100.00;58458.38;5081835;28;20118;-81
2023/09/05 05:25:38;;;;;;;9.98;5.93;;;;;;;-147.95;100.00;58458.38;5083982;28;20032;-81
2023/09/05 05:28:05;;;;;;;11.45;6.03;;;;;;;-147.95;100.00;58458.38;5081344;28;20059;-80
2023/09/05 05:30:36;;;;;;;16.60;6.55;;;;;;;-147.95;100.00;58458.38;5076750;28;20438;-80
2023/09/05 05:33:02;;;;;;;11.23;6.38;;;;;;;-147.95;100.00;58458.38;5083681;28;20047;-80
2023/09/05 05:35:27;;;;;;;9.95;5.88;;;;;;;-147.95;100.00;58458.38;5085510;28;20134;-80
2023/09/05 05:37:53;;;;;;;23.17;8.63;;;;;;;-147.95;100.00;58458.38;5087262;28;20025;-79
2023/09/05 05:40:18;;;;;;;13.45;6.53;;;;;;;-147.95;100.00;58458.38;5064101;28;20516;-80
2023/09/05 05:42:44;;;;;;;13.85;6.43;;;;;;;-147.95;100.00;58458.38;5098478;28;20127;-79
2023/09/05 05:45:10;;;;;;;22.13;9.57;;;;;;;-147.95;100.00;58458.38;5082974;28;20036;-80
2023/09/05 05:47:35;;;;;;;18.92;10.82;;;;;;;-147.95;100.00;58458.38;5082341;28;20036;-79
2023/09/05 05:50:01;;;;;;;18.50;8.88;;;;;;;-147.95;100.00;58458.38;5079564;28;20027;-86
2023/09/05 05:52:26;;;;;;;10.07;6.28;;;;;;;-147.95;100.00;58458.38;5079147;28;20031;-87
2023/09/05 05:54:52;;;;;;;12.27;5.80;;;;;;;-147.95;100.00;58458.38;5083900;28;20059;-87
2023/09/05 05:57:17;;;;;;;14.65;6.28;;;;;;;-147.95;100.00;58458.38;5085976;28;20418;-87
2023/09/05 05:59:43;;;;;;;11.43;5.70;;;;;;;-147.95;100.00;58458.38;5067786;28;20040;-87
2023/09/05 06:02:09;;;;;;;11.68;5.30;;;;;;;-147.95;100.00;58458.38;5085214;28;20028;-85
2023/09/05 06:04:34;;;;;;;12.70;4.88;;;;;;;-147.95;100.00;58458.38;5069787;28;20372;-88
2023/09/05 06:07:00;;;;;;;14.68;5.63;;;;;;;-147.95;100.00;58458.38;5086823;28;20174;-87
2023/09/05 06:09:27;;;;;;;7.88;4.30;;;;;;;-147.95;100.00;58458.38;5082244;28;20108;-88
2023/09/05 06:11:53;;;;;;;10.55;4.95;;;;;;;-147.95;100.00;58458.38;5077802;28;20036;-87
2023/09/05 06:14:18;;;;;;;11.95;4.38;;;;;;;-147.95;100.00;58458.38;5067320;28;20055;-87
2023/09/05 06:16:47;;;;;;;9.40;4.20;;;;;;;-147.95;100.00;58458.38;5086925;28;20036;-87
2023/09/05 06:19:14;;;;;;;8.55;3.92;;;;;;;-147.95;100.00;58458.38;5079757;28;20165;-87
2023/09/05 06:21:40;;;;;;;6.60;3.72;;;;;;;-147.95;100.00;58458.38;5085733;28;20035;-87
2023/09/05 06:24:06;;;;;;;10.50;3.83;;;;;;;-147.95;100.00;58458.38;5082918;28;20101;-87
2023/09/05 06:26:31;;;;;;;8.00;4.53;;;;;;;-147.95;100.00;58458.38;5084639;28;20063;-87
2023/09/05 06:28:57;;;;;;;11.30;3.92;;;;;;;-147.95;100.00;58458.38;5049249;28;20024;-87
2023/09/05 06:31:22;;;;;;;7.35;3.42;;;;;;;-147.95;100.00;58458.38;5088010;28;20032;-87
2023/09/05 06:33:47;;;;;;;11.18;3.55;;;;;;;-147.95;100.00;58458.38;5074356;28;20029;-88
2023/09/05 06:36:13;;;;;;;4.93;3.03;;;;;;;-147.95;100.00;58458.38;5088527;28;20723;-87
2023/09/05 06:38:39;;;;;;;10.25;3.80;;;;;;;-147.95;100.00;58458.38;5064671;28;20115;-87
2023/09/05 06:41:10;;;;;;;6.00;3.30;;;;;;;-147.95;100.00;58458.38;5086964;28;20024;-87
2023/09/05 06:43:36;;;;;;;7.00;3.40;;;;;;;-147.95;100.00;58458.38;5082677;28;20055;-87
2023/09/05 06:46:03;;;;;;;7.18;3.13;;;;;;;-147.95;100.00;58458.38;5071730;28;20826;-87
2023/09/05 06:48:29;;;;;;;16.88;3.25;;;;;;;-147.95;100.00;58458.38;5087322;28;20608;-87
2023/09/05 06:50:58;;;;;;;5.95;2.95;;;;;;;-147.95;100.00;58458.38;5089277;28;20028;-87
2023/09/05 06:53:27;;;;;;;4.40;3.00;;;;;;;-147.95;100.00;58458.38;5086070;28;20039;-87
2023/09/05 06:55:52;;;;;;;8.00;3.08;;;;;;;-147.95;100.00;58458.38;5081493;28;20037;-87
2023/09/05 06:58:18;;;;;;;7.80;3.08;;;;;;;-147.95;100.00;58458.38;5079782;28;20033;-87
2023/09/05 07:00:44;;;;;;;5.70;3.10;;;;;;;-147.95;100.00;58458.38;5069117;28;20032;-88
2023/09/05 07:03:11;;;;;;;5.05;2.65;;;;;;;-147.95;100.00;58458.38;5090339;28;20039;-88
2023/09/05 07:05:40;;;;;;;8.60;3.35;;;;;;;-147.95;100.00;58458.38;5086124;28;20059;-88
2023/09/05 07:08:06;;;;;;;9.90;3.15;;;;;;;-147.95;100.00;58458.38;5087564;28;20105;-87
2023/09/05 07:10:33;;;;;;;5.68;2.72;;;;;;;-147.95;100.00;58458.38;5066459;28;20048;-88
2023/09/05 07:12:58;;;;;;;4.22;2.80;;;;;;;-147.95;100.00;58458.38;5084441;28;20058;-87
2023/09/05 07:15:24;;;;;;;6.22;2.92;;;;;;;-147.95;100.00;58458.38;5078862;28;20507;-86
2023/09/05 07:17:51;;;;;;;11.75;2.72;;;;;;;-147.95;100.00;58458.38;5087471;28;20393;-88
2023/09/05 07:20:16;;;;;;;14.55;3.15;;;;;;;-147.95;100.00;58458.38;5089934;28;20150;-86
2023/09/05 07:22:41;;;;;;;4.53;2.92;;;;;;;-147.95;100.00;58458.38;5064048;28;20040;-87
2023/09/05 07:25:09;;;;;;;6.68;2.80;;;;;;;-147.95;100.00;58458.38;5073597;28;20486;-86
2023/09/05 07:27:34;;;;;;;4.78;3.03;;;;;;;-147.95;100.00;58458.38;5082528;28;20077;-87
2023/09/05 07:29:59;;;;;;;6.13;2.40;;;;;;;-147.95;100.00;58458.38;5079868;28;20032;-86
2023/09/05 07:32:25;;;;;;;7.50;2.90;;;;;;;-147.95;100.00;58458.38;5084778;28;20044;-88
2023/09/05 07:34:52;;;;;;;6.88;2.60;;;;;;;-147.95;100.00;58458.38;5071132;28;20028;-89
2023/09/05 07:37:19;;;;;;;4.40;2.38;;;;;;;-147.95;100.00;58458.38;5052997;28;20029;-87
2023/09/05 07:39:49;;;;;;;8.07;3.03;;;;;;;-147.95;100.00;58458.38;5085834;28;20497;-87
2023/09/05 07:42:15;;;;;;;6.35;2.72;;;;;;;-147.95;100.00;58458.38;5086346;28;20101;-87
2023/09/05 07:44:40;;;;;;;5.07;2.78;;;;;;;-147.95;100.00;58458.38;5085179;28;20024;-88
2023/09/05 07:47:06;;;;;;;5.50;2.88;;;;;;;-147.95;100.00;58458.38;5070401;28;20027;-87
2023/09/05 07:49:39;;;;;;;10.43;2.78;;;;;;;-147.95;100.00;58458.38;5071632;28;20027;-88
2023/09/05 07:52:05;;;;;;;8.60;2.58;;;;;;;-147.95;100.00;58458.38;5090907;28;20028;-89
2023/09/05 07:54:30;;;;;;;16.42;2.60;;;;;;;-147.95;100.00;58458.38;5095974;28;20025;-89
2023/09/05 07:56:56;;;;;;;5.07;2.65;;;;;;;-147.95;100.00;58458.38;5073198;28;20043;-88
2023/09/05 07:59:23;;;;;;;7.30;2.65;;;;;;;-147.95;100.00;58458.38;5085297;28;20433;-88
2023/09/05 08:01:48;;;;;;;13.57;2.65;;;;;;;-147.95;100.00;58458.38;5076665;28;20055;-88
2023/09/05 08:04:14;;;;;;;7.80;2.40;;;;;;;-147.95;100.00;58458.38;5077618;28;20483;-88
2023/09/05 08:06:40;;;;;;;9.05;2.70;;;;;;;-147.95;100.00;58458.38;5073602;28;20139;-88
2023/09/05 08:09:05;;;;;;;9.02;2.88;;;;;;;-147.95;100.00;58458.38;5083744;28;20024;-88
2023/09/05 08:11:34;;;;;;;8.15;2.78;;;;;;;-147.95;100.00;58458.38;5094315;28;20042;-88
2023/09/05 08:13:59;;;;;;;10.73;2.30;;;;;;;-147.95;100.00;58458.38;5086290;28;20044;-88
2023/09/05 08:16:25;;;;;;;3.30;2.38;;;;;;;-147.95;100.00;58458.38;5087190;28;20032;-88
2023/09/05 08:18:50;;;;;;;5.75;2.20;;;;;;;-147.95;100.00;58458.38;5084712;28;20032;-87
2023/09/05 08:21:16;;;;;;;7.90;2.35;;;;;;;-147.95;100.00;58458.38;5072739;28;20042;-88
2023/09/05 08:23:42;;;;;;;7.13;2.38;;;;;;;-147.95;100.00;58458.38;5071763;28;20036;-89
2023/09/05 08:26:10;;;;;;;7.05;2.83;;;;;;;-147.95;100.00;58458.38;5087474;28;20405;-89
2023/09/05 08:28:36;;;;;;;3.05;2.35;;;;;;;-147.95;100.00;58458.38;5065336;28;20082;-88
2023/09/05 08:31:02;;;;;;;5.85;2.42;;;;;;;-147.95;100.00;58458.38;5080969;28;20036;-88
2023/09/05 08:33:31;;;;;;;14.45;2.47;;;;;;;-147.95;100.00;58458.38;5084350;28;20058;-88
2023/09/05 08:35:56;;;;;;;7.57;2.30;;;;;;;-147.95;100.00;58458.38;5052621;28;20040;-88
2023/09/05 08:38:21;;;;;;;6.50;2.95;;;;;;;-147.95;100.00;58458.38;5082835;28;20111;-92
2023/09/05 08:40:47;;;;;;;8.70;2.70;;;;;;;-147.95;100.00;58458.38;5052490;28;20031;-91
2023/09/05 08:43:12;;;;;;;6.22;2.40;;;;;;;-147.95;100.00;58458.38;5057757;28;20027;-90
2023/09/05 08:45:39;;;;;;;5.38;2.63;;;;;;;-147.95;100.00;58458.38;5085427;28;20028;-89
2023/09/05 08:48:05;;;;;;;10.10;2.60;;;;;;;-147.95;100.00;58458.38;5085294;28;20046;-91
2023/09/05 08:50:36;;;;;;;9.05;2.15;;;;;;;-147.95;100.00;58458.38;5067137;28;20107;-89
2023/09/05 08:53:10;;;;;;;8.38;2.50;;;;;;;-147.95;100.00;58458.38;5081060;28;20486;-91
2023/09/05 08:55:37;;;;;;;6.85;2.15;;;;;;;-147.95;100.00;58458.38;5078864;28;20020;-92
2023/09/05 08:58:03;;;;;;;8.05;3.03;;;;;;;-147.95;100.00;58458.38;5081470;28;20032;-91
2023/09/05 09:00:29;;;;;;;6.65;2.38;;;;;;;-147.95;100.00;58458.38;5084140;28;20024;-90
2023/09/05 09:02:58;;;;;;;11.65;2.63;;;;;;;-147.95;100.00;58458.38;5063269;28;20055;-92
2023/09/05 09:05:23;;;;;;;9.25;2.60;;;;;;;-147.95;100.00;58458.38;5071520;28;20036;-90
2023/09/05 09:07:48;;;;;;;7.80;2.35;;;;;;;-147.95;100.00;58458.38;5054104;28;20031;-90
2023/09/05 09:10:21;;;;;;;7.15;2.20;;;;;;;-147.95;100.00;58458.38;5070201;28;20024;-90
2023/09/05 09:12:51;;;;;;;3.55;2.10;;;;;;;-147.95;100.00;58458.38;5082754;28;20058;-89
2023/09/05 09:15:17;;;;;;;6.35;2.30;;;;;;;-147.95;100.00;58458.38;5083231;28;20046;-88
2023/09/05 09:17:46;;;;;;;10.77;2.13;;;;;;;-147.95;100.00;58458.38;5082626;28;20040;-90
2023/09/05 09:20:12;;;;;;;6.60;2.53;;;;;;;-147.95;100.00;58458.38;5088582;28;20054;-91
2023/09/05 09:22:39;;;;;;;5.80;2.00;;;;;;;-147.95;100.00;58458.38;5090172;28;20143;-90
2023/09/05 09:25:20;;;;;;;8.15;2.30;;;;;;;-147.95;100.00;58458.38;5090929;28;20539;-90
2023/09/05 09:27:50;;;;;;;3.40;2.30;;;;;;;-147.95;100.00;58458.38;5087134;28;20051;-88
2023/09/05 09:30:22;;;;;;;14.93;2.60;;;;;;;-147.95;100.00;58458.38;5088698;28;20501;-93
2023/09/05 09:32:50;;;;;;;;;;;;;;;-147.95;100.00;58458.38;5078428;28;20036;-90
2023/09/05 09:35:15;;;;;;;8.68;2.38;;;;;;;-147.95;100.00;58458.38;5078358;28;19916;-89
2023/09/05 09:37:41;;;;;;;11.27;2.33;;;;;;;-147.95;100.00;58458.38;5066808;28;20577;-90
2023/09/05 09:40:07;;;;;;;4.55;2.05;;;;;;;-147.95;100.00;58458.38;5088828;28;20040;-89
2023/09/05 09:42:34;;;;;;;3.05;2.10;;;;;;;-147.95;100.00;58458.38;5088074;28;20046;-89
2023/09/05 09:45:04;;;;;;;2.67;1.92;;;;;;;-147.95;100.00;58458.38;5072152;28;20032;-87
2023/09/05 09:47:31;;;;;;;6.45;2.38;;;;;;;-147.95;100.00;58458.38;5088918;28;20032;-88
2023/09/05 09:49:58;;;;;;;7.50;2.40;;;;;;;-147.95;100.00;58458.38;5062878;28;20781;-87
2023/09/05 09:52:27;;;;;;;3.60;2.03;;;;;;;-147.95;100.00;58458.38;5078564;28;20159;-87
2023/09/05 09:54:55;;;;;;;5.00;2.10;;;;;;;-147.95;100.00;58458.38;5080842;28;20024;-87
2023/09/05 09:57:28;;;;;;;7.88;2.40;;;;;;;-147.95;100.00;58458.38;5088142;28;20030;-87
2023/09/05 10:00:03;;;;;;;10.60;2.83;;;;;;;-147.95;100.00;58458.38;5079458;28;20024;-87
2023/09/05 10:02:29;;;;;;;4.20;2.20;;;;;;;-147.95;100.00;58458.38;5075246;28;20035;-87
2023/09/05 10:04:57;;;;;;;4.03;2.25;;;;;;;-147.95;100.00;58458.38;5079033;28;20497;-87
2023/09/05 10:07:24;;;;;;;8.73;2.58;;;;;;;-147.95;100.00;58458.38;5084443;28;20024;-87
2023/09/05 10:09:51;;;;;;;4.18;2.28;;;;;;;-147.95;100.00;58458.38;5062733;28;20028;-88
2023/09/05 10:12:18;;;;;;;7.20;2.55;;;;;;;-147.95;100.00;58458.38;5080313;28;20055;-88
2023/09/05 10:14:45;;;;;;;4.93;2.20;;;;;;;-147.95;100.00;58458.38;5088400;28;20071;-88
2023/09/05 10:17:13;;;;;;;2.70;1.75;;;;;;;-147.95;100.00;58458.38;5082836;28;20059;-89
2023/09/05 10:19:41;;;;;;;6.18;2.20;;;;;;;-147.95;100.00;58458.38;5080329;28;20479;-88
2023/09/05 10:22:09;;;;;;;12.88;2.30;;;;;;;-147.95;100.00;58458.38;5087692;28;20035;-87
2023/09/05 10:24:36;;;;;;;7.13;2.17;;;;;;;-147.95;100.00;58458.38;5093472;28;20032;-87
2023/09/05 10:27:03;;;;;;;6.75;1.83;;;;;;;-147.95;100.00;58458.38;5091309;28;20030;-88
2023/09/05 10:29:49;;;;;;;4.53;2.03;;;;;;;-147.95;100.00;58458.38;5075316;28;20483;-83
2023/09/05 10:32:19;;;;;;;6.15;1.83;;;;;;;-147.95;100.00;58458.38;5092405;28;20108;-89
2023/09/05 10:34:48;;;;;;;5.97;2.00;;;;;;;-147.95;100.00;58458.38;5087092;28;20035;-88
2023/09/05 10:37:14;;;;;;;7.10;1.90;;;;;;;-147.95;100.00;58458.38;5092476;28;20028;-88
2023/09/05 10:39:47;;;;;;;9.13;1.90;;;;;;;-147.95;100.00;58458.38;5085871;28;20073;-88
2023/09/05 10:42:14;;;;;;;6.70;2.05;;;;;;;-147.95;100.00;58458.38;5089829;28;20032;-88
2023/09/05 10:44:50;;;;;;;3.63;1.98;;;;;;;-147.95;100.00;58458.38;5086291;28;20150;-88
2023/09/05 10:47:27;;;;;;;4.45;2.35;;;;;;;-147.95;100.00;58458.38;5088863;28;20536;-88
2023/09/05 10:50:04;;;;;;;5.10;2.10;;;;;;;-147.95;100.00;58458.38;5086764;28;20019;-88
2023/09/05 10:52:30;;;;;;;10.07;2.65;;;;;;;-147.95;100.00;58458.38;5087051;28;20032;-88
2023/09/05 10:55:25;;;;;;;8.95;2.10;;;;;;;-147.95;100.00;58458.38;5084964;28;20054;-89
2023/09/05 10:57:50;;;;;;;7.63;2.40;;;;;;;-147.95;100.00;58458.38;5085096;28;20027;-88
2023/09/05 11:00:20;;;;;;;2.63;1.98;;;;;;;-147.95;100.00;58458.38;5087574;28;20054;-88
2023/09/05 11:02:48;;;;;;;6.05;1.77;;;;;;;-147.95;100.00;58458.38;5096365;28;20032;-87
2023/09/05 11:05:19;;;;;;;7.65;2.08;;;;;;;-147.95;100.00;58458.38;5087786;28;20104;-88